createdAt,value
2017-12-19T00:01:46.396Z,28.40
2017-12-19T00:04:14.118Z,26.30
2017-12-19T00:06:42.171Z,24.53
2017-12-19T00:09:10.141Z,26.83
2017-12-19T00:11:37.976Z,26.60
2017-12-19T00:14:05.696Z,27.80
2017-12-19T00:16:33.379Z,29.10
2017-12-19T00:19:01.975Z,31.27
2017-12-19T00:21:30.626Z,26.53
2017-12-19T00:23:59.299Z,28.40
2017-12-19T00:26:27.787Z,25.90
2017-12-19T00:28:55.345Z,24.30
2017-12-19T00:31:23.114Z,27.60
2017-12-19T00:33:50.889Z,25.73
2017-12-19T00:36:18.801Z,27.00
2017-12-19T00:38:46.497Z,27.17
2017-12-19T00:41:14.260Z,26.80
2017-12-19T00:43:42.933Z,29.77
2017-12-19T00:46:10.808Z,27.87
2017-12-19T00:48:38.561Z,25.43
2017-12-19T00:51:06.533Z,28.13
2017-12-19T00:53:35.160Z,27.77
2017-12-19T00:56:02.929Z,27.00
2017-12-19T00:58:32.259Z,26.70
2017-12-19T01:00:59.915Z,30.30
2017-12-19T01:03:28.479Z,25.50
2017-12-19T01:05:56.180Z,25.53
2017-12-19T01:08:24.496Z,24.60
2017-12-19T01:10:52.971Z,22.97
2017-12-19T01:13:20.711Z,24.70
2017-12-19T01:15:49.268Z,24.13
2017-12-19T01:18:17.660Z,28.13
2017-12-19T01:20:45.384Z,24.20
2017-12-19T01:23:12.968Z,29.70
2017-12-19T01:25:40.625Z,24.80
2017-12-19T01:28:08.181Z,26.37
2017-12-19T01:30:35.882Z,25.40
2017-12-19T01:33:04.402Z,26.73
2017-12-19T01:35:32.712Z,29.57
2017-12-19T01:38:00.321Z,30.97
2017-12-19T01:40:28.247Z,28.63
2017-12-19T01:42:55.979Z,31.63
2017-12-19T01:45:23.633Z,27.60
2017-12-19T01:47:51.787Z,25.30
2017-12-19T01:50:19.621Z,27.47
2017-12-19T01:52:47.364Z,30.63
2017-12-19T01:55:15.083Z,30.27
2017-12-19T01:57:42.821Z,40.23
2017-12-19T02:00:11.176Z,37.43
2017-12-19T02:02:39.352Z,35.00
2017-12-19T02:05:06.967Z,38.37
2017-12-19T02:07:35.961Z,43.37
2017-12-19T02:10:04.268Z,41.30
2017-12-19T02:12:32.856Z,38.07
2017-12-19T02:15:01.287Z,28.80
2017-12-19T02:17:28.932Z,27.77
2017-12-19T02:19:56.586Z,33.53
2017-12-19T02:22:25.776Z,26.00
2017-12-19T02:24:54.223Z,28.37
2017-12-19T02:27:22.155Z,28.73
2017-12-19T02:29:51.373Z,30.70
2017-12-19T02:32:22.602Z,29.13
2017-12-19T02:34:50.999Z,31.33
2017-12-19T02:37:18.646Z,28.40
2017-12-19T02:39:49.460Z,31.07
2017-12-19T02:42:18.140Z,30.97
2017-12-19T02:44:48.660Z,35.70
2017-12-19T02:47:17.064Z,32.70
2017-12-19T02:49:45.457Z,29.87
2017-12-19T02:52:13.122Z,31.20
2017-12-19T02:54:40.696Z,33.20
2017-12-19T02:57:09.499Z,25.83
2017-12-19T02:59:38.447Z,34.00
2017-12-19T03:02:06.748Z,32.67
2017-12-19T03:04:35.119Z,29.80
2017-12-19T03:07:02.778Z,32.73
2017-12-19T03:09:31.151Z,28.30
2017-12-19T03:11:58.722Z,29.50
2017-12-19T03:14:27.224Z,32.23
2017-12-19T03:16:56.334Z,30.23
2017-12-19T03:19:24.722Z,36.73
2017-12-19T03:21:52.305Z,31.70
2017-12-19T03:24:19.884Z,30.60
2017-12-19T03:26:47.428Z,26.07
2017-12-19T03:29:15.006Z,29.20
2017-12-19T03:31:42.545Z,31.87
2017-12-19T03:34:12.346Z,29.57
2017-12-19T03:36:40.735Z,34.03
2017-12-19T03:39:10.054Z,32.57
2017-12-19T03:41:38.149Z,32.30
2017-12-19T03:44:12.758Z,31.80
2017-12-19T03:46:41.765Z,35.10
2017-12-19T03:49:09.350Z,26.57
2017-12-19T03:51:37.097Z,28.07
2017-12-19T03:54:06.477Z,30.67
2017-12-19T03:56:37.367Z,27.60
2017-12-19T03:59:05.550Z,27.13
2017-12-19T04:01:33.944Z,28.97
2017-12-19T04:04:01.533Z,29.50
2017-12-19T04:06:29.133Z,26.83
2017-12-19T04:09:05.830Z,26.40
2017-12-19T04:11:35.682Z,26.47
2017-12-19T04:14:06.651Z,25.30
2017-12-19T04:16:34.332Z,27.07
2017-12-19T04:19:02.090Z,25.07
2017-12-19T04:21:29.680Z,28.33
2017-12-19T04:23:58.626Z,29.83
2017-12-19T04:26:26.963Z,27.70
2017-12-19T04:28:54.539Z,32.30
2017-12-19T04:31:24.123Z,34.67
2017-12-19T04:33:51.761Z,30.53
2017-12-19T04:36:19.706Z,29.93
2017-12-19T04:38:49.309Z,26.57
2017-12-19T04:41:17.053Z,24.20
2017-12-19T04:43:44.623Z,26.53
2017-12-19T04:46:12.333Z,23.73
2017-12-19T04:48:40.683Z,26.37
2017-12-19T04:51:08.216Z,25.37
2017-12-19T04:53:36.251Z,35.57
2017-12-19T04:56:03.845Z,29.47
2017-12-19T04:58:31.413Z,25.33
2017-12-19T05:00:58.951Z,24.47
2017-12-19T05:03:26.556Z,24.10
2017-12-19T05:05:54.143Z,23.73
2017-12-19T05:08:22.527Z,27.10
2017-12-19T05:10:50.069Z,31.83
2017-12-19T05:13:17.608Z,32.27
2017-12-19T05:15:45.184Z,30.70
2017-12-19T05:18:12.748Z,31.47
2017-12-19T05:20:40.321Z,32.30
2017-12-19T05:23:08.627Z,30.63
2017-12-19T05:25:36.211Z,34.80
2017-12-19T05:28:03.751Z,29.13
2017-12-19T05:30:32.106Z,25.57
2017-12-19T05:32:59.644Z,27.70
2017-12-19T05:35:27.223Z,27.80
2017-12-19T05:37:54.756Z,27.83
2017-12-19T05:40:23.098Z,30.47
2017-12-19T05:42:50.627Z,30.73
2017-12-19T05:45:18.976Z,32.10
2017-12-19T05:47:46.507Z,26.00
2017-12-19T05:50:14.092Z,31.07
2017-12-19T05:52:41.625Z,26.27
2017-12-19T05:55:09.986Z,31.67
2017-12-19T05:57:37.532Z,26.23
2017-12-19T06:00:05.138Z,27.60
2017-12-19T06:02:32.692Z,28.30
2017-12-19T06:05:00.303Z,27.37
2017-12-19T06:07:27.881Z,28.53
2017-12-19T06:09:56.223Z,28.40
2017-12-19T06:12:23.776Z,26.93
2017-12-19T06:14:51.403Z,31.00
2017-12-19T06:17:18.960Z,30.37
2017-12-19T06:19:46.536Z,28.03
2017-12-19T06:22:14.064Z,30.47
2017-12-19T06:24:41.675Z,29.50
2017-12-19T06:27:09.216Z,31.23
2017-12-19T06:29:36.791Z,26.13
2017-12-19T06:32:04.323Z,26.57
2017-12-19T06:34:31.952Z,27.93
2017-12-19T06:36:59.500Z,38.50
2017-12-19T06:39:27.032Z,23.17
2017-12-19T06:41:54.603Z,24.33
2017-12-19T06:44:22.136Z,20.93
2017-12-19T06:46:49.712Z,21.90
2017-12-19T06:49:17.261Z,26.20
2017-12-19T06:51:44.828Z,22.97
2017-12-19T06:54:13.144Z,25.17
2017-12-19T06:56:40.725Z,21.10
2017-12-19T06:59:08.258Z,24.70
2017-12-19T07:01:36.591Z,22.13
2017-12-19T07:04:04.122Z,27.73
2017-12-19T07:06:32.480Z,28.57
2017-12-19T07:09:00.033Z,29.03
2017-12-19T07:11:27.619Z,25.53
2017-12-19T07:13:55.199Z,28.27
2017-12-19T07:16:22.797Z,26.77
2017-12-19T07:18:50.331Z,27.90
2017-12-19T07:21:17.902Z,25.77
2017-12-19T07:23:45.452Z,26.10
2017-12-19T07:26:13.048Z,30.67
2017-12-19T07:28:40.600Z,29.10
2017-12-19T07:31:08.211Z,24.03
2017-12-19T07:33:35.747Z,25.07
2017-12-19T07:36:03.379Z,30.23
2017-12-19T07:38:30.915Z,27.80
2017-12-19T07:40:58.491Z,28.47
2017-12-19T07:43:26.029Z,26.50
2017-12-19T07:45:53.615Z,28.47
2017-12-19T07:48:21.159Z,29.70
2017-12-19T07:50:49.510Z,28.50
2017-12-19T07:53:17.060Z,39.80
2017-12-19T07:55:44.641Z,53.73
2017-12-19T07:58:12.203Z,48.40
2017-12-19T08:00:39.828Z,39.00
2017-12-19T08:03:08.152Z,43.57
2017-12-19T08:05:35.735Z,42.60
2017-12-19T08:08:03.291Z,42.90
2017-12-19T08:10:30.914Z,44.27
2017-12-19T08:12:58.455Z,37.07
2017-12-19T08:15:26.043Z,35.07
2017-12-19T08:17:53.576Z,38.03
2017-12-19T08:20:21.161Z,35.13
2017-12-19T08:22:48.695Z,37.33
2017-12-19T08:25:17.071Z,36.13
2017-12-19T08:27:44.603Z,38.57
2017-12-19T08:30:12.180Z,35.60
2017-12-19T08:32:39.732Z,38.50
2017-12-19T08:35:07.328Z,41.50
2017-12-19T08:37:34.876Z,35.27
2017-12-19T08:40:02.460Z,39.80
2017-12-19T08:42:30.026Z,40.13
2017-12-19T08:44:57.611Z,36.50
2017-12-19T08:47:25.176Z,39.53
2017-12-19T08:49:52.756Z,34.47
2017-12-19T08:52:20.320Z,37.37
2017-12-19T08:54:47.888Z,34.03
2017-12-19T08:57:15.434Z,31.57
2017-12-19T08:59:43.815Z,30.33
2017-12-19T09:02:11.396Z,30.60
2017-12-19T09:04:39.008Z,28.50
2017-12-19T09:07:06.560Z,29.70
2017-12-19T09:09:34.917Z,33.73
2017-12-19T09:12:02.464Z,31.03
2017-12-19T09:14:30.055Z,33.73
2017-12-19T09:16:57.596Z,34.60
2017-12-19T09:19:25.191Z,37.80
2017-12-19T09:21:52.739Z,39.67
2017-12-19T09:24:20.315Z,36.10
2017-12-19T09:26:47.848Z,39.80
2017-12-19T09:29:16.213Z,45.13
2017-12-19T09:31:43.764Z,37.83
2017-12-19T09:34:11.376Z,34.07
2017-12-19T09:36:38.918Z,37.63
2017-12-19T09:39:06.510Z,41.17
2017-12-19T09:41:34.073Z,34.90
2017-12-19T09:44:01.673Z,37.20
2017-12-19T09:46:29.210Z,39.20
2017-12-19T09:48:56.797Z,45.03
2017-12-19T09:51:24.338Z,41.53
2017-12-19T09:53:51.916Z,44.00
2017-12-19T09:56:19.449Z,46.40
2017-12-19T09:58:47.783Z,51.77
2017-12-19T10:01:15.318Z,46.67
2017-12-19T10:03:43.675Z,44.73
2017-12-19T10:06:11.208Z,42.10
2017-12-19T10:08:38.787Z,39.50
2017-12-19T10:11:06.390Z,34.60
2017-12-19T10:13:33.972Z,35.60
2017-12-19T10:16:01.524Z,35.17
2017-12-19T10:18:29.120Z,37.87
2017-12-19T10:20:56.652Z,36.33
2017-12-19T10:23:24.260Z,37.27
2017-12-19T10:25:51.793Z,42.63
2017-12-19T10:28:19.364Z,43.83
2017-12-19T10:30:46.904Z,45.10
2017-12-19T10:33:15.260Z,45.97
2017-12-19T10:35:42.792Z,37.37
2017-12-19T10:38:10.381Z,44.47
2017-12-19T10:40:37.929Z,39.67
2017-12-19T10:43:05.508Z,53.23
2017-12-19T10:45:33.049Z,46.80
2017-12-19T10:48:00.664Z,45.00
2017-12-19T10:50:28.203Z,43.10
2017-12-19T10:52:55.784Z,46.50
2017-12-19T10:55:23.324Z,48.90
2017-12-19T10:57:50.909Z,48.67
2017-12-19T11:00:19.247Z,47.57
2017-12-19T11:02:46.888Z,45.17
2017-12-19T11:05:15.206Z,49.80
2017-12-19T11:07:42.795Z,45.00
2017-12-19T11:10:10.319Z,44.53
2017-12-19T11:12:38.630Z,47.70
2017-12-19T11:15:06.210Z,44.70
2017-12-19T11:17:33.805Z,44.90
2017-12-19T11:20:01.383Z,46.10
2017-12-19T11:22:28.952Z,33.77
2017-12-19T11:24:56.579Z,44.27
2017-12-19T11:27:24.883Z,45.00
2017-12-19T11:29:52.468Z,48.53
2017-12-19T11:32:20.020Z,39.57
2017-12-19T11:34:47.650Z,41.43
2017-12-19T11:37:15.144Z,51.00
2017-12-19T11:39:42.788Z,46.63
2017-12-19T11:42:10.343Z,41.97
2017-12-19T11:44:37.960Z,39.97
2017-12-19T11:47:05.493Z,31.67
2017-12-19T11:49:33.366Z,41.17
2017-12-19T11:52:00.993Z,58.73
2017-12-19T11:54:28.571Z,42.77
2017-12-19T11:56:56.884Z,40.13
2017-12-19T11:59:24.484Z,36.57
2017-12-19T12:01:52.043Z,41.83
2017-12-19T12:04:19.618Z,35.40
2017-12-19T12:06:47.148Z,39.13
2017-12-19T12:09:14.747Z,38.33
2017-12-19T12:11:42.298Z,41.67
2017-12-19T12:14:10.608Z,35.73
2017-12-19T12:16:38.196Z,39.87
2017-12-19T12:19:05.793Z,48.50
2017-12-19T12:21:33.323Z,42.83
2017-12-19T12:24:01.661Z,35.97
2017-12-19T12:26:29.224Z,44.13
2017-12-19T12:28:56.828Z,41.03
2017-12-19T12:31:26.208Z,41.40
2017-12-19T12:33:55.076Z,43.70
2017-12-19T12:36:24.232Z,48.73
2017-12-19T12:38:56.985Z,46.23
2017-12-19T12:41:26.852Z,52.20
2017-12-19T12:43:58.172Z,40.10
2017-12-19T12:46:28.233Z,49.23
2017-12-19T12:48:57.566Z,44.40
2017-12-19T12:51:25.111Z,43.43
2017-12-19T12:53:56.252Z,42.77
2017-12-19T12:56:24.338Z,44.83
2017-12-19T12:58:52.728Z,44.37
2017-12-19T13:01:23.315Z,51.70
2017-12-19T13:03:50.895Z,54.87
2017-12-19T13:06:20.665Z,46.33
2017-12-19T13:08:50.767Z,43.13
2017-12-19T13:11:20.115Z,42.70
2017-12-19T13:13:49.147Z,36.37
2017-12-19T13:16:17.307Z,42.93
2017-12-19T13:18:47.324Z,39.90
2017-12-19T13:21:17.103Z,40.73
2017-12-19T13:23:47.299Z,33.03
2017-12-19T13:26:16.691Z,38.37
2017-12-19T13:28:47.978Z,34.13
2017-12-19T13:31:22.200Z,40.93
2017-12-19T13:33:50.501Z,35.30
2017-12-19T13:36:18.084Z,36.97
2017-12-19T13:38:50.927Z,34.07
2017-12-19T13:41:20.125Z,39.30
2017-12-19T13:43:50.152Z,39.03
2017-12-19T13:46:17.705Z,35.63
2017-12-19T13:48:45.928Z,40.20
2017-12-19T13:51:16.114Z,46.20
2017-12-19T13:53:44.473Z,43.83
2017-12-19T13:56:13.812Z,41.37
2017-12-19T13:58:43.275Z,38.97
2017-12-19T14:01:16.647Z,48.90
2017-12-19T14:03:45.076Z,46.80
2017-12-19T14:06:17.172Z,42.50
2017-12-19T14:08:45.596Z,43.33
2017-12-19T14:11:14.226Z,45.37
2017-12-19T14:13:42.636Z,40.10
2017-12-19T14:16:11.859Z,37.47
2017-12-19T14:18:42.359Z,49.90
2017-12-19T14:21:14.851Z,46.30
2017-12-19T14:23:51.294Z,42.27
2017-12-19T14:26:25.863Z,44.17
2017-12-19T14:28:54.751Z,42.13
2017-12-19T14:31:25.521Z,44.20
2017-12-19T14:33:57.440Z,39.23
2017-12-19T14:36:25.967Z,41.37
2017-12-19T14:38:55.648Z,39.10
2017-12-19T14:41:24.041Z,42.33
2017-12-19T14:43:51.651Z,38.73
2017-12-19T14:46:19.972Z,43.83
2017-12-19T14:48:48.512Z,44.10
2017-12-19T14:51:16.061Z,46.00
2017-12-19T14:53:44.375Z,41.63
2017-12-19T14:56:14.770Z,41.73
2017-12-19T14:58:44.911Z,41.13
2017-12-19T15:01:14.389Z,42.93
2017-12-19T15:03:44.339Z,42.27
2017-12-19T15:06:12.899Z,38.90
2017-12-19T15:08:43.181Z,41.47
2017-12-19T15:11:14.012Z,39.13
2017-12-19T15:13:42.793Z,39.00
2017-12-19T15:16:11.377Z,38.70
2017-12-19T15:18:39.821Z,38.20
2017-12-19T15:21:09.656Z,35.00
2017-12-19T15:23:37.248Z,40.70
2017-12-19T15:26:07.800Z,40.33
2017-12-19T15:28:38.844Z,37.87
2017-12-19T15:31:06.384Z,35.00
2017-12-19T15:33:33.989Z,44.50
2017-12-19T15:36:03.781Z,37.87
2017-12-19T15:38:32.364Z,47.40
2017-12-19T15:41:01.195Z,40.83
2017-12-19T15:43:28.986Z,44.33
2017-12-19T15:46:01.427Z,40.77
2017-12-19T15:48:31.799Z,42.77
2017-12-19T15:51:01.194Z,38.60
2017-12-19T15:53:29.645Z,45.00
2017-12-19T15:55:57.516Z,38.73
2017-12-19T15:58:26.072Z,30.33
2017-12-19T16:00:53.615Z,41.47
2017-12-19T16:03:21.988Z,34.20
2017-12-19T16:05:49.530Z,38.27
2017-12-19T16:08:17.057Z,37.87
2017-12-19T16:10:45.436Z,37.30
2017-12-19T16:13:13.744Z,28.73
2017-12-19T16:15:42.363Z,33.40
2017-12-19T16:18:09.922Z,36.20
2017-12-19T16:20:37.573Z,33.13
2017-12-19T16:23:05.104Z,31.30
2017-12-19T16:25:32.677Z,38.23
2017-12-19T16:28:00.203Z,37.10
2017-12-19T16:30:28.600Z,29.33
2017-12-19T16:32:56.120Z,28.37
2017-12-19T16:35:23.683Z,25.77
2017-12-19T16:37:51.212Z,29.47
2017-12-19T16:40:19.596Z,25.47
2017-12-19T16:42:47.917Z,28.30
2017-12-19T16:45:15.564Z,29.90
2017-12-19T16:47:43.994Z,30.63
2017-12-19T16:50:11.818Z,27.07
2017-12-19T16:52:39.367Z,22.43
2017-12-19T16:55:06.936Z,33.23
2017-12-19T16:57:34.463Z,27.17
2017-12-19T17:00:02.808Z,26.90
2017-12-19T17:02:30.340Z,27.03
2017-12-19T17:04:57.908Z,27.30
2017-12-19T17:07:25.448Z,24.43
2017-12-19T17:09:53.028Z,22.27
2017-12-19T17:12:20.567Z,19.77
2017-12-19T17:14:48.960Z,24.83
2017-12-19T17:17:16.490Z,18.60
2017-12-19T17:19:44.824Z,19.50
2017-12-19T17:22:12.398Z,17.17
2017-12-19T17:24:39.967Z,14.20
2017-12-19T17:27:07.500Z,12.63
2017-12-19T17:29:35.076Z,12.70
2017-12-19T17:32:02.642Z,11.77
2017-12-19T17:34:30.978Z,10.47
2017-12-19T17:36:58.614Z,12.70
2017-12-19T17:39:26.244Z,19.93
2017-12-19T17:41:53.780Z,13.60
2017-12-19T17:44:21.343Z,14.23
2017-12-19T17:46:48.909Z,14.87
2017-12-19T17:49:16.518Z,12.27
2017-12-19T17:51:44.049Z,9.70
2017-12-19T17:54:11.669Z,9.07
2017-12-19T17:56:39.199Z,11.30
2017-12-19T17:59:06.873Z,10.70
2017-12-19T18:01:35.199Z,17.90
2017-12-19T18:04:02.769Z,12.80
2017-12-19T18:06:30.342Z,12.27
2017-12-19T18:08:57.964Z,12.83
2017-12-19T18:11:26.303Z,9.27
2017-12-19T18:13:53.875Z,9.33
2017-12-19T18:16:21.404Z,13.40
2017-12-19T18:18:49.744Z,9.53
2017-12-19T18:21:17.278Z,9.00
2017-12-19T18:23:45.671Z,10.83
2017-12-19T18:26:13.216Z,10.37
2017-12-19T18:28:40.873Z,19.47
2017-12-19T18:31:08.457Z,10.47
2017-12-19T18:33:36.026Z,12.13
2017-12-19T18:36:03.588Z,12.67
2017-12-19T18:38:32.970Z,8.03
2017-12-19T18:41:00.595Z,9.10
2017-12-19T18:43:28.990Z,7.60
2017-12-19T18:45:56.635Z,8.00
2017-12-19T18:48:24.174Z,8.60
2017-12-19T18:50:56.103Z,8.17
2017-12-19T18:53:23.691Z,7.67
2017-12-19T18:55:51.260Z,6.03
2017-12-19T18:58:18.940Z,6.50
2017-12-19T19:00:47.373Z,7.10
2017-12-19T19:03:14.965Z,6.67
2017-12-19T19:05:42.540Z,6.60
2017-12-19T19:08:10.068Z,5.97
2017-12-19T19:10:37.710Z,6.37
2017-12-19T19:13:05.294Z,6.27
2017-12-19T19:15:32.916Z,6.33
2017-12-19T19:18:00.499Z,7.40
2017-12-19T19:20:28.115Z,7.17
2017-12-19T19:22:55.711Z,7.00
2017-12-19T19:25:24.104Z,6.93
2017-12-19T19:27:53.740Z,5.23
2017-12-19T19:30:21.390Z,6.50
2017-12-19T19:32:49.066Z,6.43
2017-12-19T19:35:17.620Z,6.50
2017-12-19T19:37:46.137Z,5.67
2017-12-19T19:40:13.732Z,6.40
2017-12-19T19:42:41.431Z,6.83
2017-12-19T19:45:14.806Z,6.30
2017-12-19T19:47:45.845Z,6.53
2017-12-19T19:50:15.286Z,6.70
2017-12-19T19:52:46.052Z,11.50
2017-12-19T19:55:15.525Z,6.17
2017-12-19T19:57:47.615Z,5.50
2017-12-19T20:00:18.387Z,7.23
2017-12-19T20:02:49.836Z,6.70
2017-12-19T20:05:21.808Z,7.10
2017-12-19T20:10:23.939Z,7.63
2017-12-19T20:12:57.435Z,8.20
2017-12-19T20:18:09.256Z,7.67
2017-12-19T20:20:37.414Z,8.43
2017-12-19T20:23:06.011Z,8.50
2017-12-19T20:25:40.226Z,8.23
2017-12-19T20:28:16.777Z,9.43
2017-12-19T20:30:47.483Z,8.60
2017-12-19T20:33:18.901Z,11.87
2017-12-19T20:35:47.954Z,13.23
2017-12-19T20:38:19.069Z,12.93
2017-12-19T20:40:50.878Z,13.90
2017-12-19T20:43:28.755Z,10.00
2017-12-19T20:45:56.532Z,12.17
2017-12-19T20:48:30.368Z,21.13
2017-12-19T20:51:10.326Z,19.60
2017-12-19T20:53:44.015Z,16.43
2017-12-19T20:56:27.890Z,14.30
2017-12-19T20:58:57.651Z,13.03
2017-12-19T21:04:07.816Z,13.87
2017-12-19T21:06:39.595Z,15.83
2017-12-19T21:09:29.448Z,17.97
2017-12-19T21:16:29.479Z,12.70
2017-12-19T21:18:58.102Z,14.50
2017-12-19T21:21:26.545Z,12.93
2017-12-19T21:23:54.194Z,12.93
2017-12-19T21:26:22.430Z,11.13
2017-12-19T21:28:50.856Z,10.43
2017-12-19T21:31:18.841Z,12.90
2017-12-19T21:37:06.527Z,10.43
2017-12-19T21:42:15.430Z,10.63
2017-12-19T21:44:48.060Z,12.30
2017-12-19T21:47:19.536Z,13.70
2017-12-19T21:50:01.661Z,16.10
2017-12-19T21:52:36.932Z,14.60
2017-12-19T21:57:51.062Z,10.20
2017-12-19T22:00:19.638Z,10.10
2017-12-19T22:02:52.151Z,12.23
2017-12-19T22:05:23.740Z,14.30
2017-12-19T22:10:41.131Z,9.20
2017-12-19T22:13:09.530Z,10.77
2017-12-19T22:15:50.207Z,13.13
2017-12-19T22:18:23.599Z,11.77
2017-12-19T22:20:55.141Z,12.37
2017-12-19T22:26:12.514Z,13.00
2017-12-19T22:28:56.180Z,11.83
2017-12-19T22:34:02.879Z,13.13
2017-12-19T22:36:37.093Z,12.97
2017-12-19T22:39:20.205Z,11.17
2017-12-19T22:44:48.753Z,11.30
2017-12-19T22:47:18.005Z,12.43
2017-12-19T22:49:55.853Z,13.30
2017-12-19T22:52:41.374Z,10.80
2017-12-19T22:58:14.628Z,12.30
2017-12-19T23:00:59.967Z,10.37
2017-12-19T23:06:31.806Z,10.40
2017-12-19T23:09:07.254Z,10.80
2017-12-19T23:11:53.199Z,12.07
2017-12-19T23:14:36.099Z,13.30
2017-12-19T23:17:11.663Z,8.67
2017-12-19T23:22:31.976Z,15.97
2017-12-19T23:25:07.711Z,10.40
2017-12-19T23:33:10.075Z,10.37
2017-12-19T23:35:41.552Z,10.13
2017-12-19T23:40:57.195Z,12.03
2017-12-19T23:47:11.069Z,11.50
2017-12-19T23:49:56.001Z,9.70
2017-12-19T23:56:05.769Z,10.40
2017-12-19T23:58:35.908Z,11.13
